sensor_id;sensor_type;location;lat;lon;timestamp;temperature;humidity
18189;DHT22;9219;50.396;8.546;2023-08-20T20:16:42;26.00;99.90
18189;DHT22;9219;50.396;8.546;2023-08-20T20:19:09;25.80;99.90
18189;DHT22;9219;50.396;8.546;2023-08-20T20:21:36;25.90;99.90
18189;DHT22;9219;50.396;8.546;2023-08-20T20:24:05;25.90;99.90
18189;DHT22;9219;50.396;8.546;2023-08-20T20:26:32;25.80;99.90
18189;DHT22;9219;50.396;8.546;2023-08-20T20:28:59;25.70;99.90
18189;DHT22;9219;50.396;8.546;2023-08-20T20:31:26;25.70;99.90
18189;DHT22;9219;50.396;8.546;2023-08-20T20:38:58;25.60;99.90
18189;DHT22;9219;50.396;8.546;2023-08-20T20:41:26;25.60;99.90
18189;DHT22;9219;50.396;8.546;2023-08-20T20:43:53;25.70;99.90
18189;DHT22;9219;50.396;8.546;2023-08-20T20:46:20;25.60;99.90
18189;DHT22;9219;50.396;8.546;2023-08-20T20:48:48;25.60;99.90
18189;DHT22;9219;50.396;8.546;2023-08-20T20:51:15;25.60;99.90
18189;DHT22;9219;50.396;8.546;2023-08-20T20:53:42;25.50;99.90
18189;DHT22;9219;50.396;8.546;2023-08-20T21:02:26;24.90;99.90
18189;DHT22;9219;50.396;8.546;2023-08-20T21:04:53;24.20;99.90
18189;DHT22;9219;50.396;8.546;2023-08-20T21:07:20;24.50;99.90
18189;DHT22;9219;50.396;8.546;2023-08-20T21:09:47;24.60;99.90
18189;DHT22;9219;50.396;8.546;2023-08-20T21:12:14;24.70;99.90
18189;DHT22;9219;50.396;8.546;2023-08-20T21:14:41;24.50;99.90
18189;DHT22;9219;50.396;8.546;2023-08-20T21:17:08;24.50;99.90
18189;DHT22;9219;50.396;8.546;2023-08-20T21:19:37;24.50;99.90
18189;DHT22;9219;50.396;8.546;2023-08-20T21:23:23;24.40;99.90
18189;DHT22;9219;50.396;8.546;2023-08-20T21:25:50;24.00;99.90
18189;DHT22;9219;50.396;8.546;2023-08-20T21:28:17;24.00;99.90
18189;DHT22;9219;50.396;8.546;2023-08-20T21:30:44;24.50;99.90
18189;DHT22;9219;50.396;8.546;2023-08-20T21:33:12;24.40;99.90
18189;DHT22;9219;50.396;8.546;2023-08-20T21:35:39;24.30;99.90
18189;DHT22;9219;50.396;8.546;2023-08-20T21:38:06;24.40;99.90
18189;DHT22;9219;50.396;8.546;2023-08-20T21:44:06;24.50;99.90
18189;DHT22;9219;50.396;8.546;2023-08-20T21:46:34;24.40;99.90
18189;DHT22;9219;50.396;8.546;2023-08-20T21:49:01;24.30;99.90
18189;DHT22;9219;50.396;8.546;2023-08-20T21:51:29;23.90;99.90
18189;DHT22;9219;50.396;8.546;2023-08-20T21:53:56;23.70;99.90
18189;DHT22;9219;50.396;8.546;2023-08-20T21:56:23;23.70;99.90
18189;DHT22;9219;50.396;8.546;2023-08-20T21:58:51;23.50;99.90
18189;DHT22;9219;50.396;8.546;2023-08-20T22:06:23;24.10;99.90
18189;DHT22;9219;50.396;8.546;2023-08-20T22:08:50;23.90;99.90
18189;DHT22;9219;50.396;8.546;2023-08-20T22:11:18;23.90;99.90
18189;DHT22;9219;50.396;8.546;2023-08-20T22:13:45;23.60;99.90
18189;DHT22;9219;50.396;8.546;2023-08-20T22:16:12;23.30;99.90
18189;DHT22;9219;50.396;8.546;2023-08-20T22:18:39;23.30;99.90
18189;DHT22;9219;50.396;8.546;2023-08-20T22:21:06;23.60;99.90
18189;DHT22;9219;50.396;8.546;2023-08-20T22:27:05;24.30;99.90
18189;DHT22;9219;50.396;8.546;2023-08-20T22:29:32;23.70;99.90
18189;DHT22;9219;50.396;8.546;2023-08-20T22:32:00;23.60;99.90
18189;DHT22;9219;50.396;8.546;2023-08-20T22:34:27;23.30;99.90
18189;DHT22;9219;50.396;8.546;2023-08-20T22:36:56;23.40;99.90
18189;DHT22;9219;50.396;8.546;2023-08-20T22:39:23;23.20;99.90
18189;DHT22;9219;50.396;8.546;2023-08-20T22:41:49;23.60;99.90
18189;DHT22;9219;50.396;8.546;2023-08-20T22:44:18;23.70;99.90
18189;DHT22;9219;50.396;8.546;2023-08-20T22:51:47;24.00;99.90
18189;DHT22;9219;50.396;8.546;2023-08-20T22:54:14;24.10;99.90
18189;DHT22;9219;50.396;8.546;2023-08-20T22:56:41;24.10;99.90
18189;DHT22;9219;50.396;8.546;2023-08-20T22:59:08;24.00;99.90
18189;DHT22;9219;50.396;8.546;2023-08-20T23:01:37;23.70;99.90
18189;DHT22;9219;50.396;8.546;2023-08-20T23:04:04;23.60;99.90
18189;DHT22;9219;50.396;8.546;2023-08-20T23:06:34;23.80;99.90
18189;DHT22;9219;50.396;8.546;2023-08-20T23:09:02;24.10;99.90
18189;DHT22;9219;50.396;8.546;2023-08-20T23:17:00;24.10;99.90
18189;DHT22;9219;50.396;8.546;2023-08-20T23:19:27;23.90;99.90
18189;DHT22;9219;50.396;8.546;2023-08-20T23:21:54;23.80;99.90
18189;DHT22;9219;50.396;8.546;2023-08-20T23:24:21;23.90;99.90
18189;DHT22;9219;50.396;8.546;2023-08-20T23:26:48;24.00;99.90
18189;DHT22;9219;50.396;8.546;2023-08-20T23:29:15;24.10;99.90
18189;DHT22;9219;50.396;8.546;2023-08-20T23:31:42;24.00;99.90
18189;DHT22;9219;50.396;8.546;2023-08-20T23:37:28;23.90;99.90
18189;DHT22;9219;50.396;8.546;2023-08-20T23:39:55;23.60;99.90
18189;DHT22;9219;50.396;8.546;2023-08-20T23:42:22;23.30;99.90
18189;DHT22;9219;50.396;8.546;2023-08-20T23:44:49;23.30;99.90
18189;DHT22;9219;50.396;8.546;2023-08-20T23:47:15;23.50;99.90
18189;DHT22;9219;50.396;8.546;2023-08-20T23:49:43;23.50;99.90
18189;DHT22;9219;50.396;8.546;2023-08-20T23:52:10;23.80;99.90
18189;DHT22;9219;50.396;8.546;2023-08-20T23:58:11;23.40;99.90
